createdAt,value
2019-06-20T16:29:19.603Z,14144
2019-06-20T16:30:20.223Z,13964
2019-06-20T16:31:26.628Z,13932
2019-06-20T16:32:22.582Z,14100
2019-06-20T16:33:25.541Z,14448
2019-06-20T16:34:23.995Z,15124
2019-06-20T16:35:24.667Z,15948
2019-06-20T16:36:25.358Z,16684
2019-06-20T16:37:26.051Z,17104
2019-06-20T16:38:26.771Z,17440
2019-06-20T16:39:27.480Z,18048
2019-06-20T16:40:28.187Z,18368
2019-06-20T16:41:28.857Z,18656
2019-06-20T16:42:29.544Z,18688
2019-06-20T16:43:30.246Z,18464
2019-06-20T16:44:30.933Z,18080
2019-06-20T16:45:31.631Z,17600
2019-06-20T16:46:32.300Z,17076
2019-06-20T16:47:33.005Z,16812
2019-06-20T16:48:33.784Z,16316
2019-06-20T16:49:34.453Z,15340
2019-06-20T16:50:35.131Z,14064
2019-06-20T16:51:35.830Z,12932
2019-06-20T16:52:36.529Z,12608
2019-06-20T16:53:37.241Z,13108
2019-06-20T16:54:37.932Z,13896
2019-06-20T16:55:38.633Z,14588
2019-06-20T16:56:39.342Z,15236
2019-06-20T16:57:40.061Z,15704
2019-06-20T16:58:40.749Z,15936
2019-06-20T16:59:41.448Z,15848
2019-06-20T17:00:42.175Z,15752
2019-06-20T17:01:42.887Z,15628
2019-06-20T17:02:43.564Z,15540
2019-06-20T17:03:44.222Z,15584
2019-06-20T17:04:44.901Z,15764
2019-06-20T17:05:45.568Z,16008
2019-06-20T17:06:46.274Z,16060
2019-06-20T17:07:46.976Z,16052
2019-06-20T17:08:47.676Z,16000
2019-06-20T17:09:48.393Z,15916
2019-06-20T17:10:49.080Z,15712
2019-06-20T17:11:49.782Z,15444
2019-06-20T17:12:50.453Z,15120
2019-06-20T17:13:51.153Z,14736
2019-06-20T17:14:51.857Z,14200
2019-06-20T17:15:52.542Z,13808
2019-06-20T17:16:53.197Z,13560
2019-06-20T17:17:53.900Z,13240
2019-06-20T17:18:54.571Z,12928
2019-06-20T17:19:55.240Z,12676
2019-06-20T17:20:55.910Z,12496
2019-06-20T17:21:56.604Z,12372
2019-06-20T17:22:57.334Z,12076
2019-06-20T17:23:58.002Z,11720
2019-06-20T17:24:58.704Z,11356
2019-06-20T17:26:01.435Z,10788
2019-06-20T17:27:00.077Z,10228
2019-06-20T17:28:00.751Z,9956
2019-06-20T17:29:01.721Z,9908
2019-06-20T17:30:02.202Z,9712
2019-06-20T17:31:02.886Z,9068
2019-06-20T17:32:03.562Z,8204
2019-06-20T17:33:04.261Z,7584
2019-06-20T17:34:04.931Z,7276
2019-06-20T17:35:05.638Z,6904
2019-06-20T17:36:17.800Z,6356
2019-06-20T17:37:07.123Z,5760
2019-06-20T17:38:07.829Z,5284
2019-06-20T17:39:08.780Z,5100
2019-06-20T17:40:09.486Z,5092
2019-06-20T17:41:10.211Z,5128
2019-06-20T17:42:10.894Z,5208
2019-06-20T17:43:11.594Z,5260
2019-06-20T17:44:12.355Z,5260
2019-06-20T17:45:13.000Z,5336
2019-06-20T17:46:13.695Z,5512
2019-06-20T17:47:14.403Z,5756
2019-06-20T17:48:15.101Z,5988
2019-06-20T17:49:15.770Z,6204
2019-06-20T17:50:16.486Z,6496
2019-06-20T17:51:17.186Z,6892
2019-06-20T17:52:17.872Z,7276
2019-06-20T17:53:18.580Z,7672
2019-06-20T17:54:19.256Z,7980
2019-06-20T17:55:19.926Z,8060
2019-06-20T17:56:20.633Z,7744
2019-06-20T17:57:21.332Z,7208
2019-06-20T17:58:22.037Z,6696
2019-06-20T17:59:23.007Z,6264
2019-06-20T18:00:23.425Z,5960
2019-06-20T18:01:24.128Z,5804
2019-06-20T18:02:24.791Z,5744
2019-06-20T18:03:25.506Z,5832
2019-06-20T18:04:26.977Z,6012
2019-06-20T18:05:26.878Z,6196
2019-06-20T18:06:27.571Z,6356
2019-06-20T18:07:28.302Z,6300
2019-06-20T18:08:28.970Z,6040
2019-06-20T18:09:29.664Z,5708
2019-06-20T18:10:30.389Z,5372
2019-06-20T18:11:31.112Z,5068
2019-06-20T18:12:31.764Z,4852
2019-06-20T18:13:32.464Z,4752
2019-06-20T18:14:34.195Z,4764
2019-06-20T18:15:34.835Z,4872
2019-06-20T18:16:35.544Z,5068
2019-06-20T18:17:36.211Z,5372
2019-06-20T18:18:36.921Z,5760
2019-06-20T18:19:37.663Z,6216
2019-06-20T18:20:38.348Z,6704
2019-06-20T18:21:39.021Z,7168
2019-06-20T18:22:39.695Z,7584
2019-06-20T18:23:40.406Z,7816
2019-06-20T18:24:41.112Z,7908
2019-06-20T18:25:41.790Z,7940
2019-06-20T18:26:42.521Z,7972
2019-06-20T18:27:43.193Z,7968
2019-06-20T18:28:43.870Z,7888
2019-06-20T18:29:44.569Z,7748
2019-06-20T18:30:45.224Z,7400
2019-06-20T18:31:45.938Z,7036
2019-06-20T18:32:46.629Z,6608
2019-06-20T18:33:47.344Z,6280
2019-06-20T18:35:00.943Z,5980
2019-06-20T18:35:49.693Z,5604
2019-06-20T18:36:50.393Z,5216
2019-06-20T18:37:51.121Z,4896
2019-06-20T18:38:51.808Z,4672
2019-06-20T18:39:52.475Z,4540
2019-06-20T18:40:53.162Z,4376
2019-06-20T18:41:53.844Z,4300
2019-06-20T18:42:54.550Z,4280
2019-06-20T18:43:55.259Z,4248
2019-06-20T18:44:55.949Z,4176
2019-06-20T18:45:56.658Z,4116
2019-06-20T18:46:57.349Z,4060
2019-06-20T18:47:58.047Z,4020
2019-06-20T18:48:58.779Z,3848
2019-06-20T18:49:59.523Z,3576
2019-06-20T18:51:00.241Z,3240
2019-06-20T18:52:00.928Z,2908
2019-06-20T18:53:01.652Z,2568
2019-06-20T18:54:02.377Z,2252
2019-06-20T18:55:03.056Z,1964
2019-06-20T18:56:03.732Z,1724
2019-06-20T18:57:04.463Z,1584
2019-06-20T18:58:05.159Z,1528
2019-06-20T18:59:05.815Z,1492
2019-06-20T19:00:06.505Z,1440
2019-06-20T19:01:07.180Z,1368
2019-06-20T19:02:07.877Z,1252
2019-06-20T19:03:08.569Z,1132
2019-06-20T19:04:09.265Z,1048
2019-06-20T19:05:09.954Z,992
2019-06-20T19:06:10.621Z,940
2019-06-20T19:07:11.325Z,880
2019-06-20T19:08:12.469Z,836
2019-06-20T19:09:13.755Z,840
2019-06-20T19:10:14.427Z,884
2019-06-20T19:11:15.170Z,972
2019-06-20T19:12:15.877Z,1060
2019-06-20T19:13:16.554Z,1132
2019-06-20T19:14:17.267Z,1196
2019-06-20T19:15:17.975Z,1268
2019-06-20T19:16:18.662Z,1312
2019-06-20T19:17:19.347Z,1308
2019-06-20T19:18:22.921Z,1256
2019-06-20T19:19:20.960Z,1212
2019-06-20T19:20:21.489Z,1164
2019-06-20T19:21:22.161Z,1116
2019-06-20T19:22:22.834Z,1064
2019-06-20T19:23:23.545Z,1000
2019-06-20T19:24:24.232Z,948
2019-06-20T19:25:24.913Z,900
2019-06-20T19:26:25.632Z,840
2019-06-20T19:27:26.293Z,772
2019-06-20T19:28:26.963Z,696
2019-06-20T19:29:27.624Z,612
2019-06-20T19:30:28.301Z,544
2019-06-20T19:31:28.999Z,484
2019-06-20T19:32:29.688Z,432
2019-06-20T19:33:30.464Z,376
2019-06-20T19:34:31.135Z,336
2019-06-20T19:35:31.854Z,300
2019-06-20T19:36:32.625Z,276
2019-06-20T19:37:33.293Z,240
2019-06-20T19:38:34.058Z,208
2019-06-20T19:39:34.737Z,184
2019-06-20T19:40:35.431Z,160
2019-06-20T19:41:36.162Z,148
2019-06-20T19:42:36.835Z,136
2019-06-20T19:43:37.596Z,132
2019-06-20T19:44:38.318Z,128
2019-06-20T19:45:38.999Z,128
2019-06-20T19:46:39.685Z,128
2019-06-20T19:47:40.430Z,132
2019-06-20T19:48:41.171Z,132
2019-06-20T19:49:41.860Z,136
2019-06-20T19:50:42.570Z,140
2019-06-20T19:51:43.248Z,140
2019-06-20T19:52:44.084Z,132
2019-06-20T19:53:45.994Z,128
2019-06-20T19:54:46.649Z,120
2019-06-20T19:55:47.349Z,108
2019-06-20T19:56:48.128Z,100
2019-06-20T19:57:48.989Z,92
2019-06-20T19:58:49.697Z,88
2019-06-20T19:59:50.389Z,76
2019-06-20T20:00:51.100Z,68
2019-06-20T20:01:51.841Z,56
2019-06-20T20:02:52.536Z,52
2019-06-20T20:03:53.198Z,40
2019-06-20T20:04:53.965Z,36
2019-06-20T20:05:58.156Z,32
2019-06-20T20:06:55.354Z,32
2019-06-20T20:07:56.093Z,28
2019-06-20T20:08:56.789Z,28
2019-06-20T20:09:57.509Z,32
2019-06-20T20:10:58.192Z,32
2019-06-20T20:11:58.889Z,28
2019-06-20T20:12:59.600Z,28
2019-06-20T20:14:00.342Z,20
2019-06-20T20:15:01.008Z,20
2019-06-20T20:16:01.668Z,20
2019-06-20T20:17:02.366Z,20
2019-06-20T20:18:03.068Z,12
2019-06-20T20:19:03.775Z,12
2019-06-20T20:20:04.461Z,12
2019-06-20T20:21:05.149Z,8
2019-06-20T20:22:06.615Z,8
2019-06-20T20:23:07.451Z,8
2019-06-20T20:24:08.126Z,8
2019-06-20T20:25:08.839Z,8
2019-06-20T20:26:09.525Z,8
2019-06-20T20:27:10.257Z,4
2019-06-20T20:28:10.911Z,4
2019-06-20T20:29:11.578Z,8
2019-06-20T20:30:12.271Z,4
2019-06-20T20:31:12.944Z,4
2019-06-20T20:32:13.602Z,0
2019-06-20T20:33:14.285Z,0
2019-06-20T20:34:15.077Z,4
2019-06-20T20:35:15.759Z,4
2019-06-20T20:36:24.841Z,4
2019-06-20T20:37:17.232Z,0
2019-06-20T20:38:17.901Z,0
2019-06-20T20:39:18.563Z,0
2019-06-20T20:40:19.228Z,0
2019-06-20T20:41:19.897Z,0
2019-06-20T20:42:20.585Z,0
2019-06-20T20:43:21.249Z,0
2019-06-20T20:44:21.941Z,0
2019-06-20T20:45:22.614Z,0
2019-06-20T20:46:23.283Z,0
2019-06-20T20:47:23.941Z,0
2019-06-20T20:48:24.602Z,0
2019-06-20T20:49:25.265Z,0
2019-06-20T20:50:25.966Z,0
2019-06-20T20:51:26.622Z,0
2019-06-20T20:52:27.313Z,0
2019-06-20T20:53:28.008Z,0
2019-06-20T20:54:28.672Z,0
2019-06-20T20:55:29.342Z,0
2019-06-20T20:56:30.003Z,0
2019-06-20T20:57:30.696Z,0
2019-06-20T20:58:31.361Z,0
2019-06-20T20:59:32.055Z,0
2019-06-20T21:00:32.746Z,0
2019-06-20T21:01:35.512Z,0
2019-06-20T21:02:35.128Z,0
2019-06-20T21:03:35.797Z,0
2019-06-20T21:04:36.493Z,0
2019-06-20T21:05:50.633Z,0
2019-06-20T21:06:37.888Z,0
2019-06-20T21:07:39.323Z,0
2019-06-20T21:08:39.225Z,0
2019-06-20T21:09:39.926Z,0
2019-06-20T21:10:40.576Z,0
2019-06-20T21:11:41.265Z,0
2019-06-20T21:12:41.957Z,0
2019-06-20T21:13:42.668Z,0
2019-06-20T21:14:43.357Z,0
2019-06-20T21:15:44.065Z,0
2019-06-20T21:16:44.726Z,0
2019-06-20T21:17:45.397Z,0
2019-06-20T21:18:46.057Z,0
2019-06-20T21:19:46.742Z,0
2019-06-20T21:20:47.413Z,0
2019-06-20T21:21:48.104Z,0
2019-06-20T21:22:48.769Z,0
2019-06-20T21:23:49.429Z,0
2019-06-20T21:24:50.095Z,0
2019-06-20T21:25:50.777Z,0
2019-06-20T21:26:51.460Z,0
2019-06-20T21:27:52.184Z,0
2019-06-20T21:28:52.847Z,0
2019-06-20T21:29:53.542Z,0
2019-06-20T21:30:54.219Z,0
2019-06-20T21:31:54.889Z,0
2019-06-20T21:32:55.583Z,0
2019-06-20T21:33:56.289Z,0
2019-06-20T21:34:56.991Z,0
2019-06-20T21:36:07.831Z,0
2019-06-20T21:36:59.300Z,0
2019-06-20T21:37:59.962Z,0
2019-06-20T21:39:00.671Z,0
2019-06-20T21:40:01.327Z,0
2019-06-20T21:41:02.034Z,0
2019-06-20T21:42:02.741Z,0
2019-06-20T21:43:03.386Z,0
2019-06-20T21:44:04.085Z,0
2019-06-20T21:45:04.760Z,0
2019-06-20T21:46:06.907Z,0
2019-06-20T21:47:07.081Z,0
2019-06-20T21:48:07.768Z,0
2019-06-20T21:49:08.427Z,0
2019-06-20T21:50:09.090Z,0
2019-06-20T21:51:09.788Z,0
2019-06-20T21:52:10.474Z,0
2019-06-20T21:53:11.153Z,0
2019-06-20T21:54:11.824Z,0
2019-06-20T21:55:12.535Z,0
2019-06-20T21:56:13.220Z,0
2019-06-20T21:57:13.912Z,0
2019-06-20T21:58:14.626Z,0
2019-06-20T21:59:15.307Z,0
2019-06-20T22:00:16.008Z,0
2019-06-20T22:01:16.694Z,0
2019-06-20T22:02:17.378Z,0
2019-06-20T22:03:18.147Z,0
2019-06-20T22:04:18.783Z,0
2019-06-20T22:05:19.448Z,0
2019-06-20T22:06:23.672Z,0
2019-06-20T22:07:21.802Z,0
2019-06-20T22:08:22.496Z,0
2019-06-20T22:09:23.152Z,0
2019-06-20T22:10:23.843Z,0
2019-06-20T22:11:24.553Z,0
2019-06-20T22:12:25.234Z,0
2019-06-20T22:13:25.942Z,0
2019-06-20T22:14:26.630Z,0
2019-06-20T22:15:27.329Z,0
2019-06-20T22:16:27.961Z,0
2019-06-20T22:17:28.650Z,0
2019-06-20T22:18:29.313Z,0
2019-06-20T22:19:29.973Z,0
2019-06-20T22:20:30.636Z,0
2019-06-20T22:21:31.298Z,0
2019-06-20T22:22:31.959Z,0
2019-06-20T22:23:32.684Z,0
2019-06-20T22:24:33.365Z,0
2019-06-20T22:25:34.048Z,0
2019-06-20T22:26:34.729Z,0
2019-06-20T22:27:35.424Z,0
2019-06-20T22:28:36.101Z,0
2019-06-20T22:29:36.794Z,0
2019-06-20T22:30:37.478Z,0
2019-06-20T22:31:38.148Z,0
2019-06-20T22:32:38.842Z,0
2019-06-20T22:33:39.530Z,0
2019-06-20T22:34:40.188Z,0
2019-06-20T22:35:40.879Z,0
2019-06-20T22:36:41.565Z,0
2019-06-20T22:37:42.239Z,0
2019-06-20T22:38:42.899Z,0
2019-06-20T22:39:43.560Z,0
2019-06-20T22:40:44.222Z,0
2019-06-20T22:41:44.929Z,0
2019-06-20T22:42:45.624Z,0
2019-06-20T22:43:46.320Z,0
2019-06-20T22:44:46.994Z,0
2019-06-20T22:45:47.772Z,0
2019-06-20T22:46:48.463Z,0
2019-06-20T22:47:49.122Z,0
2019-06-20T22:48:49.813Z,0
2019-06-20T22:49:50.509Z,0
2019-06-20T22:50:51.185Z,0
2019-06-20T22:51:51.859Z,0
2019-06-20T22:52:52.554Z,0
2019-06-20T22:53:53.238Z,0
2019-06-20T22:54:53.934Z,0
2019-06-20T22:55:54.591Z,0
2019-06-20T22:56:55.251Z,0
2019-06-20T22:57:55.944Z,0
2019-06-20T22:58:56.601Z,0
2019-06-20T22:59:57.293Z,0
2019-06-20T23:00:57.998Z,0
2019-06-20T23:01:58.672Z,0
2019-06-20T23:02:59.360Z,0
2019-06-20T23:04:00.025Z,0
2019-06-20T23:05:00.715Z,0
2019-06-20T23:06:01.405Z,0
2019-06-20T23:07:02.099Z,0
2019-06-20T23:08:02.757Z,0
2019-06-20T23:09:03.444Z,0
2019-06-20T23:10:10.527Z,0
2019-06-20T23:11:05.791Z,0
2019-06-20T23:12:06.481Z,0
2019-06-20T23:13:07.172Z,0
2019-06-20T23:14:07.831Z,0
2019-06-20T23:15:08.493Z,0
2019-06-20T23:16:09.154Z,0
2019-06-20T23:17:09.847Z,0
2019-06-20T23:18:10.535Z,0
2019-06-20T23:19:11.241Z,0
2019-06-20T23:20:11.913Z,0
2019-06-20T23:21:12.587Z,0
2019-06-20T23:22:13.265Z,0
2019-06-20T23:23:13.956Z,0
2019-06-20T23:24:14.633Z,0
2019-06-20T23:25:15.305Z,0
2019-06-20T23:26:15.966Z,0
2019-06-20T23:27:16.624Z,0
2019-06-20T23:28:17.327Z,0
2019-06-20T23:29:17.998Z,0
2019-06-20T23:30:18.654Z,0
2019-06-20T23:31:19.343Z,0
2019-06-20T23:32:20.034Z,0
2019-06-20T23:33:21.133Z,0
2019-06-20T23:34:21.765Z,0
2019-06-20T23:35:22.476Z,0
2019-06-20T23:36:23.228Z,0
2019-06-20T23:37:23.945Z,0
2019-06-20T23:38:24.614Z,0
2019-06-20T23:39:28.201Z,0
2019-06-20T23:40:26.337Z,0
2019-06-20T23:41:26.941Z,0
2019-06-20T23:42:27.639Z,0
2019-06-20T23:43:28.338Z,0
2019-06-20T23:44:29.026Z,0
2019-06-20T23:45:29.694Z,0
2019-06-20T23:46:30.357Z,0
2019-06-20T23:47:31.037Z,0
2019-06-20T23:48:31.717Z,0
2019-06-20T23:49:32.400Z,0
2019-06-20T23:50:33.088Z,0
2019-06-20T23:51:33.751Z,0
2019-06-20T23:52:34.445Z,0
2019-06-20T23:53:35.131Z,0
2019-06-20T23:54:35.821Z,0
2019-06-20T23:55:36.514Z,0
2019-06-20T23:56:37.195Z,0
2019-06-20T23:57:37.876Z,0
2019-06-20T23:58:38.593Z,0
2019-06-20T23:59:39.266Z,0
